sensor_id;sensor_type;location;lat;lon;timestamp;pressure;altitude;pressure_sealevel;temperature;humidity
43450;BME280;29041;42.266;23.110;2023-12-14T00:00:34;94826.91;;;15.96;56.97
43450;BME280;29041;42.266;23.110;2023-12-14T00:03:21;94832.53;;;16.47;55.99
43450;BME280;29041;42.266;23.110;2023-12-14T00:06:08;94846.81;;;16.29;56.82
43450;BME280;29041;42.266;23.110;2023-12-14T00:08:55;94819.50;;;16.92;55.32
43450;BME280;29041;42.266;23.110;2023-12-14T00:11:42;94811.38;;;17.21;53.93
43450;BME280;29041;42.266;23.110;2023-12-14T00:14:31;94807.88;;;17.21;53.78
43450;BME280;29041;42.266;23.110;2023-12-14T00:17:18;94838.13;;;17.12;53.23
43450;BME280;29041;42.266;23.110;2023-12-14T00:20:07;94810.56;;;16.92;54.38
43450;BME280;29041;42.266;23.110;2023-12-14T00:22:54;94818.25;;;16.61;55.39
43450;BME280;29041;42.266;23.110;2023-12-14T00:25:41;94790.84;;;17.27;53.08
43450;BME280;29041;42.266;23.110;2023-12-14T00:28:28;94822.22;;;17.14;53.70
43450;BME280;29041;42.266;23.110;2023-12-14T00:31:17;94820.25;;;16.82;55.07
43450;BME280;29041;42.266;23.110;2023-12-14T00:34:04;94811.75;;;17.38;53.78
43450;BME280;29041;42.266;23.110;2023-12-14T00:36:52;94812.50;;;17.60;52.56
43450;BME280;29041;42.266;23.110;2023-12-14T00:39:39;94819.13;;;17.19;53.39
43450;BME280;29041;42.266;23.110;2023-12-14T00:42:26;94804.03;;;17.18;52.98
43450;BME280;29041;42.266;23.110;2023-12-14T00:45:13;94813.25;;;16.77;53.68
43450;BME280;29041;42.266;23.110;2023-12-14T00:48:07;94803.75;;;16.06;56.78
43450;BME280;29041;42.266;23.110;2023-12-14T00:50:54;94822.59;;;16.94;53.59
43450;BME280;29041;42.266;23.110;2023-12-14T00:53:41;94812.47;;;16.88;53.91
43450;BME280;29041;42.266;23.110;2023-12-14T00:56:28;94815.97;;;15.75;57.12
43450;BME280;29041;42.266;23.110;2023-12-14T00:59:15;94822.88;;;16.53;55.23
43450;BME280;29041;42.266;23.110;2023-12-14T01:02:02;94824.59;;;15.95;56.21
43450;BME280;29041;42.266;23.110;2023-12-14T01:04:51;94820.19;;;16.57;54.75
43450;BME280;29041;42.266;23.110;2023-12-14T01:07:39;94821.41;;;16.81;54.24
43450;BME280;29041;42.266;23.110;2023-12-14T01:10:26;94821.06;;;17.01;53.22
43450;BME280;29041;42.266;23.110;2023-12-14T01:13:13;94828.16;;;16.17;54.98
43450;BME280;29041;42.266;23.110;2023-12-14T01:16:05;94819.78;;;16.51;55.28
43450;BME280;29041;42.266;23.110;2023-12-14T01:18:53;94837.28;;;14.83;60.21
43450;BME280;29041;42.266;23.110;2023-12-14T01:21:41;94812.41;;;15.60;57.79
43450;BME280;29041;42.266;23.110;2023-12-14T01:24:28;94806.94;;;15.00;59.06
43450;BME280;29041;42.266;23.110;2023-12-14T01:27:15;94823.38;;;15.29;59.81
43450;BME280;29041;42.266;23.110;2023-12-14T01:30:03;94827.66;;;15.86;57.23
43450;BME280;29041;42.266;23.110;2023-12-14T01:32:50;94809.47;;;15.86;57.32
43450;BME280;29041;42.266;23.110;2023-12-14T01:35:37;94795.56;;;15.25;58.84
43450;BME280;29041;42.266;23.110;2023-12-14T01:38:26;94808.38;;;15.98;57.61
43450;BME280;29041;42.266;23.110;2023-12-14T01:41:18;94803.13;;;16.53;55.30
43450;BME280;29041;42.266;23.110;2023-12-14T01:44:08;94819.03;;;16.76;54.43
43450;BME280;29041;42.266;23.110;2023-12-14T01:46:55;94791.59;;;16.81;54.25
43450;BME280;29041;42.266;23.110;2023-12-14T01:49:42;94806.09;;;16.04;57.29
43450;BME280;29041;42.266;23.110;2023-12-14T01:52:29;94823.25;;;16.44;55.45
43450;BME280;29041;42.266;23.110;2023-12-14T01:55:18;94798.03;;;15.48;58.85
43450;BME280;29041;42.266;23.110;2023-12-14T01:58:08;94783.00;;;16.50;55.28
43450;BME280;29041;42.266;23.110;2023-12-14T02:01:00;94799.75;;;15.78;57.21
43450;BME280;29041;42.266;23.110;2023-12-14T02:03:51;94769.44;;;15.51;58.24
43450;BME280;29041;42.266;23.110;2023-12-14T02:06:40;94781.41;;;16.24;56.17
43450;BME280;29041;42.266;23.110;2023-12-14T02:09:28;94772.88;;;16.25;55.82
43450;BME280;29041;42.266;23.110;2023-12-14T02:12:16;94771.09;;;17.02;53.69
43450;BME280;29041;42.266;23.110;2023-12-14T02:15:05;94776.88;;;16.78;53.57
43450;BME280;29041;42.266;23.110;2023-12-14T02:17:52;94787.41;;;15.18;57.55
43450;BME280;29041;42.266;23.110;2023-12-14T02:20:39;94748.53;;;16.43;55.06
43450;BME280;29041;42.266;23.110;2023-12-14T02:23:28;94780.47;;;15.83;56.51
43450;BME280;29041;42.266;23.110;2023-12-14T02:26:15;94770.19;;;16.32;55.11
43450;BME280;29041;42.266;23.110;2023-12-14T02:29:02;94756.63;;;16.18;54.59
43450;BME280;29041;42.266;23.110;2023-12-14T02:31:49;94764.44;;;16.48;55.14
43450;BME280;29041;42.266;23.110;2023-12-14T02:34:36;94739.59;;;16.10;55.04
43450;BME280;29041;42.266;23.110;2023-12-14T02:37:23;94756.13;;;15.87;56.12
43450;BME280;29041;42.266;23.110;2023-12-14T02:40:12;94765.50;;;16.11;56.88
43450;BME280;29041;42.266;23.110;2023-12-14T02:42:59;94770.53;;;16.16;55.48
43450;BME280;29041;42.266;23.110;2023-12-14T02:45:47;94771.13;;;15.11;59.33
43450;BME280;29041;42.266;23.110;2023-12-14T02:48:34;94764.13;;;15.69;57.15
43450;BME280;29041;42.266;23.110;2023-12-14T02:51:21;94758.47;;;15.92;56.71
43450;BME280;29041;42.266;23.110;2023-12-14T02:54:08;94769.19;;;15.11;59.05
43450;BME280;29041;42.266;23.110;2023-12-14T02:56:56;94764.06;;;15.58;58.28
43450;BME280;29041;42.266;23.110;2023-12-14T02:59:44;94777.34;;;15.81;57.94
43450;BME280;29041;42.266;23.110;2023-12-14T03:02:31;94792.53;;;15.37;58.86
43450;BME280;29041;42.266;23.110;2023-12-14T03:05:18;94775.84;;;15.84;56.07
43450;BME280;29041;42.266;23.110;2023-12-14T03:08:05;94787.56;;;16.24;55.78
43450;BME280;29041;42.266;23.110;2023-12-14T03:10:52;94774.81;;;14.88;59.96
43450;BME280;29041;42.266;23.110;2023-12-14T03:13:41;94769.84;;;16.38;54.98
43450;BME280;29041;42.266;23.110;2023-12-14T03:16:28;94791.59;;;13.95;62.38
43450;BME280;29041;42.266;23.110;2023-12-14T03:19:20;94767.38;;;15.26;59.49
43450;BME280;29041;42.266;23.110;2023-12-14T03:22:07;94773.16;;;15.88;57.12
43450;BME280;29041;42.266;23.110;2023-12-14T03:24:55;94768.88;;;15.86;56.44
43450;BME280;29041;42.266;23.110;2023-12-14T03:27:42;94762.84;;;16.26;55.91
43450;BME280;29041;42.266;23.110;2023-12-14T03:30:30;94748.72;;;15.77;57.33
43450;BME280;29041;42.266;23.110;2023-12-14T03:33:17;94765.69;;;15.07;58.10
43450;BME280;29041;42.266;23.110;2023-12-14T03:36:05;94756.16;;;15.24;59.96
43450;BME280;29041;42.266;23.110;2023-12-14T03:38:52;94757.06;;;16.45;55.51
43450;BME280;29041;42.266;23.110;2023-12-14T03:41:39;94777.06;;;16.05;56.80
43450;BME280;29041;42.266;23.110;2023-12-14T03:44:27;94764.00;;;15.47;56.41
43450;BME280;29041;42.266;23.110;2023-12-14T03:47:15;94760.09;;;16.11;57.06
43450;BME280;29041;42.266;23.110;2023-12-14T03:50:03;94765.38;;;15.19;59.83
43450;BME280;29041;42.266;23.110;2023-12-14T03:52:51;94753.91;;;15.33;59.70
43450;BME280;29041;42.266;23.110;2023-12-14T03:55:38;94755.56;;;15.52;58.16
43450;BME280;29041;42.266;23.110;2023-12-14T03:58:25;94762.41;;;14.83;59.95
43450;BME280;29041;42.266;23.110;2023-12-14T04:01:16;94765.44;;;15.27;59.58
43450;BME280;29041;42.266;23.110;2023-12-14T04:04:05;94759.41;;;16.54;55.93
43450;BME280;29041;42.266;23.110;2023-12-14T04:06:52;94739.88;;;15.13;59.14
43450;BME280;29041;42.266;23.110;2023-12-14T04:09:39;94756.25;;;15.38;58.70
43450;BME280;29041;42.266;23.110;2023-12-14T04:12:26;94747.63;;;15.18;58.95
43450;BME280;29041;42.266;23.110;2023-12-14T04:15:13;94755.50;;;14.89;59.22
43450;BME280;29041;42.266;23.110;2023-12-14T04:18:00;94762.31;;;13.97;62.84
43450;BME280;29041;42.266;23.110;2023-12-14T04:20:49;94756.97;;;15.35;59.12
43450;BME280;29041;42.266;23.110;2023-12-14T04:23:36;94754.56;;;15.16;59.83
43450;BME280;29041;42.266;23.110;2023-12-14T04:26:23;94752.78;;;16.30;55.86
43450;BME280;29041;42.266;23.110;2023-12-14T04:29:11;94744.13;;;15.88;56.46
43450;BME280;29041;42.266;23.110;2023-12-14T04:31:58;94749.69;;;16.39;55.18
43450;BME280;29041;42.266;23.110;2023-12-14T04:34:45;94747.63;;;15.85;56.68
43450;BME280;29041;42.266;23.110;2023-12-14T04:37:34;94732.97;;;15.23;57.65
43450;BME280;29041;42.266;23.110;2023-12-14T04:40:21;94743.50;;;16.24;55.51
43450;BME280;29041;42.266;23.110;2023-12-14T04:43:08;94737.28;;;16.20;55.45
43450;BME280;29041;42.266;23.110;2023-12-14T04:45:55;94761.13;;;13.64;63.47
43450;BME280;29041;42.266;23.110;2023-12-14T04:48:42;94749.47;;;15.77;57.98
43450;BME280;29041;42.266;23.110;2023-12-14T04:51:30;94728.03;;;16.39;55.25
43450;BME280;29041;42.266;23.110;2023-12-14T04:54:19;94752.44;;;15.47;57.66
43450;BME280;29041;42.266;23.110;2023-12-14T04:57:06;94743.13;;;16.43;55.14
43450;BME280;29041;42.266;23.110;2023-12-14T04:59:53;94742.44;;;16.93;53.91
43450;BME280;29041;42.266;23.110;2023-12-14T05:02:40;94748.22;;;16.92;53.16
43450;BME280;29041;42.266;23.110;2023-12-14T05:05:27;94741.25;;;16.76;53.38
43450;BME280;29041;42.266;23.110;2023-12-14T05:08:14;94760.97;;;16.80;53.95
43450;BME280;29041;42.266;23.110;2023-12-14T05:11:03;94762.53;;;16.89;53.37
43450;BME280;29041;42.266;23.110;2023-12-14T05:13:50;94764.84;;;16.90;53.16
43450;BME280;29041;42.266;23.110;2023-12-14T05:16:37;94764.91;;;17.19;52.28
43450;BME280;29041;42.266;23.110;2023-12-14T05:19:35;94748.63;;;17.23;51.82
43450;BME280;29041;42.266;23.110;2023-12-14T05:22:22;94771.00;;;15.52;57.15
43450;BME280;29041;42.266;23.110;2023-12-14T05:25:09;94777.88;;;16.12;55.38
43450;BME280;29041;42.266;23.110;2023-12-14T05:27:57;94776.78;;;15.50;58.33
43450;BME280;29041;42.266;23.110;2023-12-14T05:30:44;94773.66;;;14.89;58.05
43450;BME280;29041;42.266;23.110;2023-12-14T05:33:32;94782.34;;;15.16;58.22
43450;BME280;29041;42.266;23.110;2023-12-14T05:36:23;94771.59;;;15.27;56.60
43450;BME280;29041;42.266;23.110;2023-12-14T05:39:10;94776.94;;;15.76;55.34
43450;BME280;29041;42.266;23.110;2023-12-14T05:41:57;94766.41;;;15.60;56.39
43450;BME280;29041;42.266;23.110;2023-12-14T05:44:46;94781.72;;;15.37;56.92
43450;BME280;29041;42.266;23.110;2023-12-14T05:47:33;94773.28;;;15.46;56.46
43450;BME280;29041;42.266;23.110;2023-12-14T05:50:21;94787.66;;;14.23;60.03
43450;BME280;29041;42.266;23.110;2023-12-14T05:53:08;94803.63;;;15.18;56.83
43450;BME280;29041;42.266;23.110;2023-12-14T05:55:55;94786.50;;;15.59;55.90
43450;BME280;29041;42.266;23.110;2023-12-14T05:58:42;94780.88;;;14.74;59.13
43450;BME280;29041;42.266;23.110;2023-12-14T06:01:31;94793.34;;;15.42;56.63
43450;BME280;29041;42.266;23.110;2023-12-14T06:04:18;94787.38;;;15.14;56.36
43450;BME280;29041;42.266;23.110;2023-12-14T06:07:05;94806.56;;;15.54;56.21
43450;BME280;29041;42.266;23.110;2023-12-14T06:09:57;94793.28;;;14.82;58.40
43450;BME280;29041;42.266;23.110;2023-12-14T06:12:44;94807.91;;;14.40;59.60
43450;BME280;29041;42.266;23.110;2023-12-14T06:15:31;94796.25;;;14.66;59.06
43450;BME280;29041;42.266;23.110;2023-12-14T06:18:20;94786.19;;;15.12;57.40
43450;BME280;29041;42.266;23.110;2023-12-14T06:21:07;94797.28;;;15.51;56.23
43450;BME280;29041;42.266;23.110;2023-12-14T06:23:55;94792.69;;;15.59;55.69
43450;BME280;29041;42.266;23.110;2023-12-14T06:26:42;94788.97;;;15.19;57.05
43450;BME280;29041;42.266;23.110;2023-12-14T06:29:29;94808.56;;;15.68;56.03
43450;BME280;29041;42.266;23.110;2023-12-14T06:32:17;94790.41;;;15.09;57.68
43450;BME280;29041;42.266;23.110;2023-12-14T06:35:06;94797.91;;;15.30;57.46
43450;BME280;29041;42.266;23.110;2023-12-14T06:37:53;94810.47;;;15.08;57.54
43450;BME280;29041;42.266;23.110;2023-12-14T06:40:40;94792.03;;;15.21;57.79
43450;BME280;29041;42.266;23.110;2023-12-14T06:43:28;94811.22;;;16.31;54.12
43450;BME280;29041;42.266;23.110;2023-12-14T06:46:15;94816.00;;;15.82;56.29
43450;BME280;29041;42.266;23.110;2023-12-14T06:49:02;94809.91;;;15.33;57.09
43450;BME280;29041;42.266;23.110;2023-12-14T06:51:51;94802.75;;;16.50;55.17
43450;BME280;29041;42.266;23.110;2023-12-14T06:54:38;94812.84;;;16.57;54.40
43450;BME280;29041;42.266;23.110;2023-12-14T06:57:25;94814.31;;;16.33;54.71
43450;BME280;29041;42.266;23.110;2023-12-14T07:00:15;94815.63;;;15.24;57.36
43450;BME280;29041;42.266;23.110;2023-12-14T07:03:02;94818.94;;;16.36;54.74
43450;BME280;29041;42.266;23.110;2023-12-14T07:05:49;94805.44;;;16.47;54.13
43450;BME280;29041;42.266;23.110;2023-12-14T07:08:38;94805.50;;;16.83;52.52
43450;BME280;29041;42.266;23.110;2023-12-14T07:11:25;94817.06;;;16.47;53.13
43450;BME280;29041;42.266;23.110;2023-12-14T07:14:13;94814.34;;;16.40;54.15
43450;BME280;29041;42.266;23.110;2023-12-14T07:17:00;94830.28;;;16.71;53.42
43450;BME280;29041;42.266;23.110;2023-12-14T07:19:47;94825.41;;;16.06;54.83
43450;BME280;29041;42.266;23.110;2023-12-14T07:22:34;94829.56;;;16.99;52.83
43450;BME280;29041;42.266;23.110;2023-12-14T07:25:23;94837.91;;;16.32;55.24
43450;BME280;29041;42.266;23.110;2023-12-14T07:28:10;94845.09;;;15.92;57.79
43450;BME280;29041;42.266;23.110;2023-12-14T07:30:57;94831.34;;;16.33;55.78
43450;BME280;29041;42.266;23.110;2023-12-14T07:33:45;94833.38;;;15.81;58.58
43450;BME280;29041;42.266;23.110;2023-12-14T07:36:32;94837.19;;;15.73;59.08
43450;BME280;29041;42.266;23.110;2023-12-14T07:39:20;94845.56;;;16.16;57.52
43450;BME280;29041;42.266;23.110;2023-12-14T07:42:09;94834.41;;;15.58;59.81
43450;BME280;29041;42.266;23.110;2023-12-14T07:44:56;94832.50;;;15.62;59.28
43450;BME280;29041;42.266;23.110;2023-12-14T07:47:43;94851.78;;;16.20;57.41
43450;BME280;29041;42.266;23.110;2023-12-14T07:50:32;94844.38;;;15.47;59.53
43450;BME280;29041;42.266;23.110;2023-12-14T07:53:19;94855.16;;;17.38;53.77
43450;BME280;29041;42.266;23.110;2023-12-14T07:56:07;94826.88;;;16.99;54.41
43450;BME280;29041;42.266;23.110;2023-12-14T07:58:55;94845.91;;;16.07;56.38
43450;BME280;29041;42.266;23.110;2023-12-14T08:01:42;94847.31;;;16.68;57.43
43450;BME280;29041;42.266;23.110;2023-12-14T08:04:29;94831.78;;;16.46;57.73
43450;BME280;29041;42.266;23.110;2023-12-14T08:07:18;94819.50;;;16.92;55.98
43450;BME280;29041;42.266;23.110;2023-12-14T08:10:07;94818.84;;;19.13;51.07
43450;BME280;29041;42.266;23.110;2023-12-14T08:12:54;94822.56;;;18.74;51.06
43450;BME280;29041;42.266;23.110;2023-12-14T08:15:44;94813.69;;;18.66;51.14
43450;BME280;29041;42.266;23.110;2023-12-14T08:18:31;94808.59;;;21.28;45.48
43450;BME280;29041;42.266;23.110;2023-12-14T08:21:19;94809.31;;;21.80;44.00
43450;BME280;29041;42.266;23.110;2023-12-14T08:24:06;94830.47;;;18.53;50.65
43450;BME280;29041;42.266;23.110;2023-12-14T08:26:53;94804.78;;;17.40;53.85
43450;BME280;29041;42.266;23.110;2023-12-14T08:29:41;94815.63;;;17.29;55.03
43450;BME280;29041;42.266;23.110;2023-12-14T08:32:30;94828.00;;;17.67;54.88
43450;BME280;29041;42.266;23.110;2023-12-14T08:35:17;94819.00;;;18.10;54.22
43450;BME280;29041;42.266;23.110;2023-12-14T08:38:04;94829.50;;;18.00;54.43
43450;BME280;29041;42.266;23.110;2023-12-14T08:40:51;94817.88;;;17.92;54.01
43450;BME280;29041;42.266;23.110;2023-12-14T08:43:39;94818.59;;;18.11;54.06
43450;BME280;29041;42.266;23.110;2023-12-14T08:46:26;94811.72;;;17.59;55.80
43450;BME280;29041;42.266;23.110;2023-12-14T08:49:14;94808.84;;;18.24;53.95
43450;BME280;29041;42.266;23.110;2023-12-14T08:52:03;94793.94;;;16.97;57.05
43450;BME280;29041;42.266;23.110;2023-12-14T08:54:51;94798.59;;;17.40;56.71
43450;BME280;29041;42.266;23.110;2023-12-14T08:57:38;94790.31;;;17.90;55.18
43450;BME280;29041;42.266;23.110;2023-12-14T09:00:36;94780.06;;;19.05;52.39
43450;BME280;29041;42.266;23.110;2023-12-14T09:03:24;94775.16;;;18.07;54.35
43450;BME280;29041;42.266;23.110;2023-12-14T09:06:13;94780.53;;;18.93;51.58
43450;BME280;29041;42.266;23.110;2023-12-14T09:09:01;94781.66;;;18.95;52.22
43450;BME280;29041;42.266;23.110;2023-12-14T09:11:48;94767.81;;;19.66;49.62
43450;BME280;29041;42.266;23.110;2023-12-14T09:14:35;94768.47;;;19.39;51.48
43450;BME280;29041;42.266;23.110;2023-12-14T09:17:23;94764.13;;;19.84;50.44
43450;BME280;29041;42.266;23.110;2023-12-14T09:20:20;94748.03;;;19.24;51.06
43450;BME280;29041;42.266;23.110;2023-12-14T09:23:09;94748.22;;;19.02;51.57
43450;BME280;29041;42.266;23.110;2023-12-14T09:25:56;94737.03;;;19.73;48.65
43450;BME280;29041;42.266;23.110;2023-12-14T09:28:44;94736.81;;;19.14;50.94
43450;BME280;29041;42.266;23.110;2023-12-14T09:31:37;94734.50;;;19.55;49.84
43450;BME280;29041;42.266;23.110;2023-12-14T09:34:24;94719.13;;;19.37;50.94
43450;BME280;29041;42.266;23.110;2023-12-14T09:37:11;94741.25;;;19.39;50.82
43450;BME280;29041;42.266;23.110;2023-12-14T09:40:01;94716.25;;;19.13;50.47
43450;BME280;29041;42.266;23.110;2023-12-14T09:42:49;94735.81;;;19.77;49.46
43450;BME280;29041;42.266;23.110;2023-12-14T09:45:37;94748.75;;;19.66;50.71
43450;BME280;29041;42.266;23.110;2023-12-14T09:48:28;94743.84;;;19.54;50.15
43450;BME280;29041;42.266;23.110;2023-12-14T09:51:16;94743.53;;;19.82;49.44
43450;BME280;29041;42.266;23.110;2023-12-14T09:54:03;94743.56;;;18.99;51.62
43450;BME280;29041;42.266;23.110;2023-12-14T09:56:52;94747.88;;;18.93;52.21
43450;BME280;29041;42.266;23.110;2023-12-14T09:59:39;94743.41;;;19.21;51.61
43450;BME280;29041;42.266;23.110;2023-12-14T10:02:27;94744.06;;;19.70;50.45
43450;BME280;29041;42.266;23.110;2023-12-14T10:05:14;94740.34;;;19.91;49.96
43450;BME280;29041;42.266;23.110;2023-12-14T10:08:02;94734.13;;;20.22;49.47
43450;BME280;29041;42.266;23.110;2023-12-14T10:10:52;94723.72;;;21.66;46.19
43450;BME280;29041;42.266;23.110;2023-12-14T10:13:42;94731.56;;;21.17;46.70
43450;BME280;29041;42.266;23.110;2023-12-14T10:16:30;94727.06;;;21.94;45.11
43450;BME280;29041;42.266;23.110;2023-12-14T10:19:18;94743.47;;;21.27;46.28
43450;BME280;29041;42.266;23.110;2023-12-14T10:22:06;94737.06;;;20.89;46.39
43450;BME280;29041;42.266;23.110;2023-12-14T10:24:54;94732.16;;;20.81;46.75
43450;BME280;29041;42.266;23.110;2023-12-14T10:27:41;94727.69;;;20.39;47.74
43450;BME280;29041;42.266;23.110;2023-12-14T10:30:29;94733.41;;;21.00;46.20
43450;BME280;29041;42.266;23.110;2023-12-14T10:33:17;94748.63;;;19.00;51.53
43450;BME280;29041;42.266;23.110;2023-12-14T10:36:05;94749.06;;;18.92;52.99
43450;BME280;29041;42.266;23.110;2023-12-14T10:38:53;94761.31;;;19.14;51.54
43450;BME280;29041;42.266;23.110;2023-12-14T10:41:41;94772.69;;;18.35;53.87
43450;BME280;29041;42.266;23.110;2023-12-14T10:44:28;94770.34;;;19.49;51.31
43450;BME280;29041;42.266;23.110;2023-12-14T10:47:19;94783.75;;;20.37;48.46
43450;BME280;29041;42.266;23.110;2023-12-14T10:50:07;94787.03;;;21.34;46.91
43450;BME280;29041;42.266;23.110;2023-12-14T10:52:54;94781.75;;;21.47;45.65
43450;BME280;29041;42.266;23.110;2023-12-14T10:55:44;94778.41;;;21.83;44.67
43450;BME280;29041;42.266;23.110;2023-12-14T10:58:44;94787.41;;;21.60;45.25
43450;BME280;29041;42.266;23.110;2023-12-14T11:01:33;94791.59;;;21.88;44.78
43450;BME280;29041;42.266;23.110;2023-12-14T11:04:27;94770.56;;;21.17;45.70
43450;BME280;29041;42.266;23.110;2023-12-14T11:07:15;94781.84;;;21.87;44.69
43450;BME280;29041;42.266;23.110;2023-12-14T11:10:02;94775.69;;;22.23;43.46
43450;BME280;29041;42.266;23.110;2023-12-14T11:12:51;94786.28;;;21.57;44.58
43450;BME280;29041;42.266;23.110;2023-12-14T11:15:39;94777.97;;;21.64;44.80
43450;BME280;29041;42.266;23.110;2023-12-14T11:18:27;94765.25;;;21.98;43.98
43450;BME280;29041;42.266;23.110;2023-12-14T11:21:19;94749.81;;;22.64;42.92
43450;BME280;29041;42.266;23.110;2023-12-14T11:24:07;94770.81;;;22.51;42.74
43450;BME280;29041;42.266;23.110;2023-12-14T11:26:54;94769.50;;;22.76;42.37
43450;BME280;29041;42.266;23.110;2023-12-14T11:29:42;94769.44;;;22.02;43.80
43450;BME280;29041;42.266;23.110;2023-12-14T11:32:29;94764.38;;;21.37;45.48
43450;BME280;29041;42.266;23.110;2023-12-14T11:35:16;94771.75;;;21.40;45.39
43450;BME280;29041;42.266;23.110;2023-12-14T11:38:04;94780.28;;;21.66;45.14
43450;BME280;29041;42.266;23.110;2023-12-14T11:40:56;94777.00;;;20.18;48.20
43450;BME280;29041;42.266;23.110;2023-12-14T11:43:43;94789.16;;;20.99;46.94
43450;BME280;29041;42.266;23.110;2023-12-14T11:46:30;94797.56;;;19.91;49.41
43450;BME280;29041;42.266;23.110;2023-12-14T11:49:18;94801.66;;;20.96;47.25
43450;BME280;29041;42.266;23.110;2023-12-14T11:52:05;94788.31;;;21.29;45.51
43450;BME280;29041;42.266;23.110;2023-12-14T11:54:54;94791.28;;;21.15;46.24
43450;BME280;29041;42.266;23.110;2023-12-14T11:57:46;94797.59;;;22.60;43.46
43450;BME280;29041;42.266;23.110;2023-12-14T12:00:38;94785.63;;;22.33;43.31
43450;BME280;29041;42.266;23.110;2023-12-14T12:03:25;94798.59;;;20.63;46.80
43450;BME280;29041;42.266;23.110;2023-12-14T12:06:22;94811.78;;;21.47;45.47
43450;BME280;29041;42.266;23.110;2023-12-14T12:09:09;94797.25;;;21.53;45.42
43450;BME280;29041;42.266;23.110;2023-12-14T12:11:59;94785.38;;;21.64;45.85
43450;BME280;29041;42.266;23.110;2023-12-14T12:14:46;94793.66;;;21.80;44.27
43450;BME280;29041;42.266;23.110;2023-12-14T12:17:35;94786.69;;;21.08;46.04
43450;BME280;29041;42.266;23.110;2023-12-14T12:20:23;94773.56;;;21.23;46.11
43450;BME280;29041;42.266;23.110;2023-12-14T12:23:11;94779.47;;;20.67;47.52
43450;BME280;29041;42.266;23.110;2023-12-14T12:25:58;94770.75;;;19.86;49.61
43450;BME280;29041;42.266;23.110;2023-12-14T12:28:47;94773.69;;;21.39;45.93
43450;BME280;29041;42.266;23.110;2023-12-14T12:31:34;94756.91;;;20.04;48.57
43450;BME280;29041;42.266;23.110;2023-12-14T12:34:22;94743.28;;;21.61;45.42
43450;BME280;29041;42.266;23.110;2023-12-14T12:37:09;94764.78;;;20.88;47.17
43450;BME280;29041;42.266;23.110;2023-12-14T12:39:57;94759.13;;;22.30;44.09
43450;BME280;29041;42.266;23.110;2023-12-14T12:42:44;94766.16;;;21.91;44.16
43450;BME280;29041;42.266;23.110;2023-12-14T12:45:36;94766.00;;;22.18;44.09
43450;BME280;29041;42.266;23.110;2023-12-14T12:48:23;94785.81;;;21.62;44.84
43450;BME280;29041;42.266;23.110;2023-12-14T12:51:10;94755.72;;;22.06;44.25
43450;BME280;29041;42.266;23.110;2023-12-14T12:53:58;94777.66;;;22.02;44.49
43450;BME280;29041;42.266;23.110;2023-12-14T12:56:46;94800.97;;;20.92;47.40
43450;BME280;29041;42.266;23.110;2023-12-14T12:59:34;94793.63;;;21.13;45.51
43450;BME280;29041;42.266;23.110;2023-12-14T13:02:22;94806.69;;;20.43;46.33
43450;BME280;29041;42.266;23.110;2023-12-14T13:05:10;94809.78;;;20.41;46.31
43450;BME280;29041;42.266;23.110;2023-12-14T13:07:57;94805.19;;;21.44;44.44
43450;BME280;29041;42.266;23.110;2023-12-14T13:10:44;94830.44;;;20.73;45.49
43450;BME280;29041;42.266;23.110;2023-12-14T13:13:32;94837.50;;;20.67;46.36
43450;BME280;29041;42.266;23.110;2023-12-14T13:16:19;94828.03;;;21.54;44.13
43450;BME280;29041;42.266;23.110;2023-12-14T13:19:08;94834.91;;;18.85;48.44
43450;BME280;29041;42.266;23.110;2023-12-14T13:21:55;94832.84;;;20.02;47.21
43450;BME280;29041;42.266;23.110;2023-12-14T13:24:45;94841.44;;;19.97;47.21
43450;BME280;29041;42.266;23.110;2023-12-14T13:27:32;94851.13;;;18.29;49.83
43450;BME280;29041;42.266;23.110;2023-12-14T13:30:22;94849.69;;;17.74;50.48
43450;BME280;29041;42.266;23.110;2023-12-14T13:33:09;94844.31;;;17.23;51.89
43450;BME280;29041;42.266;23.110;2023-12-14T13:36:02;94861.72;;;17.15;51.48
43450;BME280;29041;42.266;23.110;2023-12-14T13:38:49;94865.25;;;17.55;51.08
43450;BME280;29041;42.266;23.110;2023-12-14T13:41:37;94866.00;;;17.56;51.11
43450;BME280;29041;42.266;23.110;2023-12-14T13:44:24;94866.00;;;17.16;51.65
43450;BME280;29041;42.266;23.110;2023-12-14T13:47:11;94869.88;;;17.22;51.39
43450;BME280;29041;42.266;23.110;2023-12-14T13:49:58;94874.13;;;17.02;50.79
43450;BME280;29041;42.266;23.110;2023-12-14T13:52:47;94882.94;;;16.73;51.12
43450;BME280;29041;42.266;23.110;2023-12-14T13:55:34;94876.53;;;16.15;51.77
43450;BME280;29041;42.266;23.110;2023-12-14T13:58:21;94896.66;;;16.21;51.97
43450;BME280;29041;42.266;23.110;2023-12-14T14:01:09;94913.56;;;16.88;49.85
43450;BME280;29041;42.266;23.110;2023-12-14T14:03:56;94911.47;;;16.42;50.24
43450;BME280;29041;42.266;23.110;2023-12-14T14:06:43;94921.56;;;16.48;51.23
43450;BME280;29041;42.266;23.110;2023-12-14T14:09:31;94923.88;;;16.50;50.61
43450;BME280;29041;42.266;23.110;2023-12-14T14:12:19;94936.72;;;15.90;51.70
43450;BME280;29041;42.266;23.110;2023-12-14T14:15:07;94939.34;;;16.49;50.59
43450;BME280;29041;42.266;23.110;2023-12-14T14:17:54;94950.75;;;16.07;50.64
43450;BME280;29041;42.266;23.110;2023-12-14T14:20:42;94964.47;;;15.83;51.22
43450;BME280;29041;42.266;23.110;2023-12-14T14:23:29;94968.78;;;16.51;49.12
43450;BME280;29041;42.266;23.110;2023-12-14T14:26:18;94963.91;;;16.08;50.33
43450;BME280;29041;42.266;23.110;2023-12-14T14:29:05;94970.63;;;15.80;50.93
43450;BME280;29041;42.266;23.110;2023-12-14T14:31:56;94973.22;;;16.18;49.95
43450;BME280;29041;42.266;23.110;2023-12-14T14:34:43;94984.03;;;16.11;50.46
43450;BME280;29041;42.266;23.110;2023-12-14T14:37:31;94982.06;;;15.63;50.55